createdAt,value
2023-12-09T00:01:26.479Z,12.45
2023-12-09T00:06:28.256Z,13.80
2023-12-09T00:11:30.415Z,13.77
2023-12-09T00:16:32.351Z,13.90
2023-12-09T00:21:34.220Z,13.20
2023-12-09T00:26:35.940Z,14.52
2023-12-09T00:31:37.753Z,14.13
2023-12-09T00:36:39.822Z,12.32
2023-12-09T00:41:41.617Z,13.73
2023-12-09T00:46:43.390Z,13.50
2023-12-09T00:51:45.316Z,13.75
2023-12-09T00:56:47.136Z,12.95
2023-12-09T01:01:48.901Z,13.55
2023-12-09T01:06:50.744Z,12.98
2023-12-09T01:11:54.643Z,13.52
2023-12-09T01:16:56.857Z,12.88
2023-12-09T01:21:58.666Z,13.70
2023-12-09T01:27:00.401Z,13.48
2023-12-09T01:32:02.326Z,12.48
2023-12-09T01:37:04.158Z,13.50
2023-12-09T01:42:05.894Z,13.63
2023-12-09T01:47:08.348Z,13.45
2023-12-09T01:52:10.151Z,13.40
2023-12-09T01:57:12.108Z,12.55
2023-12-09T02:02:13.932Z,13.50
2023-12-09T02:07:15.749Z,13.52
2023-12-09T02:12:32.560Z,13.27
2023-12-09T02:17:41.524Z,12.95
2023-12-09T02:22:43.282Z,12.70
2023-12-09T02:27:54.490Z,13.35
2023-12-09T02:32:58.073Z,12.75
2023-12-09T02:38:02.598Z,13.15
2023-12-09T02:43:06.074Z,13.30
2023-12-09T02:48:08.190Z,12.52
2023-12-09T02:53:10.211Z,12.27
2023-12-09T02:58:13.382Z,13.07
2023-12-09T03:03:15.563Z,13.02
2023-12-09T03:08:17.362Z,13.10
2023-12-09T03:13:20.760Z,12.52
2023-12-09T03:18:22.675Z,13.02
2023-12-09T03:23:24.688Z,12.57
2023-12-09T03:28:26.601Z,11.77
2023-12-09T03:33:28.643Z,12.98
2023-12-09T03:38:30.838Z,11.68
2023-12-09T03:43:33.388Z,12.02
2023-12-09T03:48:35.316Z,12.40
2023-12-09T03:53:37.721Z,12.82
2023-12-09T03:58:39.562Z,12.75
2023-12-09T04:03:41.451Z,12.30
2023-12-09T04:08:43.532Z,12.98
2023-12-09T04:13:45.486Z,12.00
2023-12-09T04:18:48.587Z,11.73
2023-12-09T04:23:50.537Z,13.43
2023-12-09T04:28:52.294Z,12.60
2023-12-09T04:33:54.063Z,12.32
2023-12-09T04:38:56.113Z,12.50
2023-12-09T04:43:57.836Z,12.88
2023-12-09T04:48:59.763Z,12.45
2023-12-09T04:54:01.517Z,12.52
2023-12-09T04:59:04.183Z,13.48
2023-12-09T05:04:06.184Z,12.93
2023-12-09T05:09:09.575Z,12.52
2023-12-09T05:14:11.459Z,12.18
2023-12-09T05:19:13.274Z,13.23
2023-12-09T05:24:15.265Z,12.98
2023-12-09T05:29:17.075Z,12.52
2023-12-09T05:34:19.185Z,13.32
2023-12-09T05:39:21.672Z,13.45
2023-12-09T05:44:23.670Z,12.65
2023-12-09T05:49:26.488Z,13.80
2023-12-09T05:54:28.231Z,12.63
2023-12-09T05:59:30.149Z,12.80
2023-12-09T06:04:32.054Z,13.57
2023-12-09T06:09:33.981Z,14.35
2023-12-09T06:14:36.978Z,13.32
2023-12-09T06:19:39.316Z,13.00
2023-12-09T06:24:41.175Z,13.43
2023-12-09T06:29:45.769Z,13.27
2023-12-09T06:34:47.623Z,13.55
2023-12-09T06:39:49.522Z,13.23
2023-12-09T06:44:51.498Z,13.35
2023-12-09T06:49:53.437Z,13.00
2023-12-09T06:54:55.675Z,13.52
2023-12-09T06:59:57.692Z,13.35
2023-12-09T07:04:59.522Z,14.02
2023-12-09T07:10:01.429Z,13.85
2023-12-09T07:15:06.707Z,14.75
2023-12-09T07:20:08.815Z,14.57
2023-12-09T07:25:12.977Z,14.30
2023-12-09T07:30:15.226Z,14.07
2023-12-09T07:35:18.324Z,14.05
2023-12-09T07:40:20.355Z,15.10
2023-12-09T07:45:22.215Z,15.50
2023-12-09T07:50:24.377Z,14.52
2023-12-09T07:55:26.213Z,13.70
2023-12-09T08:00:28.694Z,13.95
2023-12-09T08:05:30.836Z,13.88
2023-12-09T08:10:32.714Z,14.93
2023-12-09T08:15:34.881Z,17.17
2023-12-09T08:20:37.825Z,16.65
2023-12-09T08:25:40.081Z,19.10
2023-12-09T08:30:41.890Z,18.75
2023-12-09T08:35:43.652Z,18.73
2023-12-09T08:40:45.541Z,17.10
2023-12-09T08:45:47.379Z,10.50
2023-12-09T08:50:49.349Z,17.05
2023-12-09T08:55:51.120Z,16.63
2023-12-09T09:00:53.639Z,15.18
2023-12-09T09:05:56.049Z,15.85
2023-12-09T09:10:58.236Z,16.10
2023-12-09T09:16:00.314Z,16.45
2023-12-09T09:21:02.205Z,17.10
2023-12-09T09:26:06.251Z,15.00
2023-12-09T09:31:08.198Z,16.02
2023-12-09T09:36:10.705Z,17.08
2023-12-09T09:41:37.362Z,17.55
2023-12-09T09:46:40.305Z,18.65
2023-12-09T09:51:46.132Z,19.95
2023-12-09T09:56:50.437Z,19.77
2023-12-09T10:01:52.889Z,20.15
2023-12-09T10:06:57.286Z,20.95
2023-12-09T10:11:59.314Z,19.67
2023-12-09T10:17:01.517Z,20.88
2023-12-09T10:22:03.383Z,20.75
2023-12-09T10:27:05.805Z,20.13
2023-12-09T10:32:07.856Z,14.25
2023-12-09T10:37:09.902Z,12.77
2023-12-09T10:42:12.379Z,14.30
2023-12-09T10:47:14.562Z,14.95
2023-12-09T10:52:16.452Z,16.40
2023-12-09T10:57:20.054Z,15.50
2023-12-09T11:02:22.700Z,18.40
2023-12-09T11:07:26.210Z,19.30
2023-12-09T11:12:31.266Z,19.88
2023-12-09T11:17:38.664Z,18.70
2023-12-09T11:22:42.441Z,18.42
2023-12-09T11:27:44.495Z,18.27
2023-12-09T11:32:46.757Z,17.00
2023-12-09T11:37:50.494Z,14.15
2023-12-09T11:42:53.304Z,17.40
2023-12-09T11:47:58.210Z,19.40
2023-12-09T11:53:00.309Z,20.13
2023-12-09T11:58:02.366Z,16.40
2023-12-09T12:03:04.826Z,17.73
2023-12-09T12:08:06.872Z,16.58
2023-12-09T12:13:09.294Z,16.67
2023-12-09T12:18:11.249Z,18.17
2023-12-09T12:23:19.947Z,17.77
2023-12-09T12:28:28.580Z,19.42
2023-12-09T12:33:32.547Z,18.60
2023-12-09T12:38:34.909Z,20.05
2023-12-09T12:43:36.986Z,18.05
2023-12-09T12:48:39.397Z,19.77
2023-12-09T12:53:41.428Z,18.42
2023-12-09T12:58:43.278Z,20.50
2023-12-09T13:03:45.331Z,21.83
2023-12-09T13:08:47.278Z,18.00
2023-12-09T13:13:49.251Z,21.33
2023-12-09T13:18:51.386Z,22.95
2023-12-09T13:23:53.417Z,22.05
2023-12-09T13:28:55.439Z,20.25
2023-12-09T13:33:57.459Z,21.60
2023-12-09T13:38:59.361Z,20.70
2023-12-09T13:44:02.241Z,15.82
2023-12-09T13:49:04.188Z,15.55
2023-12-09T13:54:06.119Z,17.70
2023-12-09T13:59:08.010Z,22.08
2023-12-09T14:04:10.514Z,20.73
2023-12-09T14:09:13.761Z,22.27
2023-12-09T14:14:15.810Z,23.48
2023-12-09T14:19:18.702Z,23.15
2023-12-09T14:24:22.388Z,22.88
2023-12-09T14:29:24.247Z,24.35
2023-12-09T14:34:27.233Z,24.58
2023-12-09T14:39:29.988Z,24.98
2023-12-09T14:44:33.006Z,24.08
2023-12-09T14:49:35.142Z,25.15
2023-12-09T14:54:37.042Z,24.95
2023-12-09T14:59:39.834Z,23.48
2023-12-09T15:04:41.549Z,20.42
2023-12-09T15:09:43.692Z,20.60
2023-12-09T15:14:46.003Z,15.73
2023-12-09T15:19:48.474Z,20.00
2023-12-09T15:24:50.514Z,21.90
2023-12-09T15:29:52.408Z,21.15
2023-12-09T15:34:54.395Z,22.80
2023-12-09T15:39:56.299Z,24.88
2023-12-09T15:44:58.278Z,23.48
2023-12-09T15:50:00.501Z,19.05
2023-12-09T15:55:02.257Z,25.15
2023-12-09T16:00:05.356Z,24.80
2023-12-09T16:05:07.608Z,24.42
2023-12-09T16:10:10.125Z,26.83
2023-12-09T16:15:12.935Z,27.00
2023-12-09T16:20:15.845Z,25.50
2023-12-09T16:25:17.835Z,23.58
2023-12-09T16:30:19.743Z,24.33
2023-12-09T16:35:21.719Z,24.42
2023-12-09T16:40:24.988Z,26.08
2023-12-09T16:45:27.073Z,17.10
2023-12-09T16:50:29.429Z,17.75
2023-12-09T16:55:31.252Z,19.17
2023-12-09T17:00:35.605Z,19.60
2023-12-09T17:05:37.729Z,21.77
2023-12-09T17:10:39.765Z,25.42
2023-12-09T17:15:41.784Z,20.27
2023-12-09T17:20:43.752Z,22.60
2023-12-09T17:25:45.544Z,23.80
2023-12-09T17:30:48.979Z,25.67
2023-12-09T17:35:50.814Z,24.38
2023-12-09T17:40:52.600Z,19.92
2023-12-09T17:45:55.734Z,19.27
2023-12-09T17:50:57.783Z,20.52
2023-12-09T17:55:59.634Z,19.33
2023-12-09T18:01:01.767Z,23.23
2023-12-09T18:06:04.819Z,20.27
2023-12-09T18:11:07.010Z,24.88
2023-12-09T18:16:11.594Z,24.52
2023-12-09T18:21:13.334Z,24.00
2023-12-09T18:26:15.498Z,24.27
2023-12-09T18:31:17.689Z,25.40
2023-12-09T18:36:19.552Z,25.27
2023-12-09T18:41:21.382Z,24.45
2023-12-09T18:46:25.442Z,23.95
2023-12-09T18:51:27.236Z,25.40
2023-12-09T18:56:29.133Z,25.95
2023-12-09T19:01:31.745Z,25.13
2023-12-09T19:06:42.228Z,24.80
2023-12-09T19:11:51.355Z,26.88
2023-12-09T19:16:55.243Z,25.75
2023-12-09T19:21:57.076Z,26.13
2023-12-09T19:26:59.450Z,28.30
2023-12-09T19:32:01.469Z,27.02
2023-12-09T19:37:04.215Z,29.00
2023-12-09T19:42:06.492Z,29.20
2023-12-09T19:47:08.353Z,32.92
2023-12-09T19:52:10.156Z,33.53
2023-12-09T19:57:12.010Z,35.20
2023-12-09T20:02:14.777Z,33.35
2023-12-09T20:07:17.415Z,33.90
2023-12-09T20:12:20.117Z,35.97
2023-12-09T20:17:22.205Z,34.45
2023-12-09T20:22:24.081Z,37.05
2023-12-09T20:27:25.834Z,34.65
2023-12-09T20:32:28.074Z,33.75
2023-12-09T20:37:30.209Z,34.88
2023-12-09T20:42:32.517Z,33.08
2023-12-09T20:47:35.569Z,39.42
2023-12-09T20:52:39.030Z,36.72
2023-12-09T20:57:42.127Z,37.08
2023-12-09T21:02:44.441Z,36.65
2023-12-09T21:07:46.553Z,35.20
2023-12-09T21:12:48.864Z,35.35
2023-12-09T21:17:50.660Z,36.83
2023-12-09T21:22:52.602Z,35.78
2023-12-09T21:27:54.438Z,34.92
2023-12-09T21:32:56.531Z,36.17
2023-12-09T21:37:58.332Z,35.35
2023-12-09T21:43:00.388Z,34.00
2023-12-09T21:48:04.985Z,32.65
2023-12-09T21:53:08.898Z,32.15
2023-12-09T21:58:11.506Z,31.58
2023-12-09T22:03:13.419Z,30.52
2023-12-09T22:08:15.327Z,28.65
2023-12-09T22:13:16.980Z,28.08
2023-12-09T22:18:19.862Z,25.63
2023-12-09T22:23:21.713Z,22.88
2023-12-09T22:28:23.466Z,21.25
2023-12-09T22:33:26.176Z,21.98
2023-12-09T22:38:28.354Z,23.27
2023-12-09T22:43:30.287Z,24.23
2023-12-09T22:48:32.195Z,24.70
2023-12-09T22:53:34.708Z,25.10
2023-12-09T22:58:36.811Z,23.42
2023-12-09T23:03:38.634Z,25.23
2023-12-09T23:08:40.836Z,24.85
2023-12-09T23:13:43.961Z,24.80
2023-12-09T23:18:46.151Z,23.05
2023-12-09T23:23:48.211Z,23.40
2023-12-09T23:28:50.150Z,25.33
2023-12-09T23:33:51.995Z,25.13
2023-12-09T23:38:54.231Z,22.77
2023-12-09T23:43:55.995Z,22.88
2023-12-09T23:48:58.073Z,23.75
2023-12-09T23:53:59.821Z,24.00
2023-12-09T23:59:01.771Z,22.65
